Time;durP1;ratioP1;P1;durP2;ratioP2;P2;SDS_P1;SDS_P2;PMS_P1;PMS_P2;Temp;Humidity;BMP_temperature;BMP_pressure;BME280_temperature;BME280_humidity;BME280_pressure;Samples;Min_cycle;Max_cycle;Signal;HPM_P1;HPM_P2
2023/01/19 00:01:45;;;;;;;18.73;15.93;;;;;;;-1.43;100.00;99309.63;5018044;28;20259;-74
2023/01/19 00:04:10;;;;;;;17.40;15.60;;;;;;;-1.38;100.00;99305.53;5023803;28;20260;-74
2023/01/19 00:06:36;;;;;;;18.03;15.07;;;;;;;-1.30;100.00;99314.19;5017866;28;20189;-75
2023/01/19 00:09:02;;;;;;;18.57;15.30;;;;;;;-1.24;100.00;99305.84;5021405;28;20276;-73
2023/01/19 00:11:27;;;;;;;16.70;14.97;;;;;;;-1.17;100.00;99304.31;5022001;28;20204;-73
2023/01/19 00:13:53;;;;;;;19.50;14.20;;;;;;;-1.12;100.00;99305.25;5020038;28;20572;-71
2023/01/19 00:16:21;;;;;;;15.73;14.03;;;;;;;-1.07;100.00;99311.31;5025290;28;20187;-73
2023/01/19 00:18:49;;;;;;;14.93;13.33;;;;;;;-1.03;100.00;99305.47;5021964;28;20188;-71
2023/01/19 00:21:14;;;;;;;15.57;12.90;;;;;;;-1.00;100.00;99300.47;5022011;28;20292;-73
2023/01/19 00:23:40;;;;;;;14.43;12.93;;;;;;;-0.96;100.00;99297.16;5027786;28;20907;-73
2023/01/19 00:26:05;;;;;;;13.97;12.43;;;;;;;-0.93;100.00;99306.53;5026050;28;20838;-72
2023/01/19 00:28:31;;;;;;;13.93;12.43;;;;;;;-0.91;100.00;99304.91;5019473;28;20182;-74
2023/01/19 00:30:56;;;;;;;14.17;12.63;;;;;;;-0.88;100.00;99311.72;5020730;28;20208;-75
2023/01/19 00:33:21;;;;;;;13.37;12.07;;;;;;;-0.85;100.00;99317.72;5034253;28;20300;-74
2023/01/19 00:35:51;;;;;;;14.03;12.30;;;;;;;-0.84;100.00;99313.50;5022698;28;20216;-74
2023/01/19 00:38:17;;;;;;;13.70;12.30;;;;;;;-0.84;100.00;99311.81;5030294;28;20696;-74
2023/01/19 00:40:42;;;;;;;12.70;11.43;;;;;;;-0.84;100.00;99316.88;5025965;28;20212;-72
2023/01/19 00:43:07;;;;;;;13.43;12.00;;;;;;;-0.84;100.00;99323.66;5028826;28;20201;-71
2023/01/19 00:45:33;;;;;;;14.47;12.37;;;;;;;-0.84;100.00;99316.03;5028030;28;20225;-72
2023/01/19 00:47:58;;;;;;;13.43;11.97;;;;;;;-0.84;100.00;99321.13;5033952;28;20651;-72
2023/01/19 00:50:26;;;;;;;14.73;12.40;;;;;;;-0.84;100.00;99327.06;5036674;28;20283;-72
2023/01/19 00:52:52;;;;;;;13.60;12.00;;;;;;;-0.84;100.00;99321.13;5034239;28;20218;-72
2023/01/19 00:55:18;;;;;;;13.70;12.27;;;;;;;-0.84;100.00;99331.28;5033801;28;20280;-72
2023/01/19 00:57:43;;;;;;;13.63;12.07;;;;;;;-0.83;100.00;99336.38;5030167;28;20193;-73
2023/01/19 01:00:12;;;;;;;13.30;11.93;;;;;;;-0.81;100.00;99337.28;5024440;28;20227;-71
2023/01/19 01:02:38;;;;;;;13.43;12.03;;;;;;;-0.78;100.00;99339.91;5040876;28;20202;-75
2023/01/19 01:05:04;;;;;;;13.93;12.53;;;;;;;-0.74;100.00;99340.81;5057851;28;20283;-74
2023/01/19 01:07:33;;;;;;;13.27;11.80;;;;;;;-0.70;100.00;99337.53;5040261;28;20195;-70
2023/01/19 01:09:59;;;;;;;14.27;12.77;;;;;;;-0.64;100.00;99346.97;5025869;28;20190;-73
2023/01/19 01:12:25;;;;;;;13.77;12.30;;;;;;;-0.63;100.00;99339.34;5017389;28;20210;-70
2023/01/19 01:14:50;;;;;;;14.83;12.67;;;;;;;-0.57;100.00;99346.25;5020005;28;20804;-73
2023/01/19 01:17:16;;;;;;;13.43;12.03;;;;;;;-0.55;100.00;99344.59;5026164;28;20211;-73
2023/01/19 01:19:41;;;;;;;14.63;12.47;;;;;;;-0.52;100.00;99339.59;5018119;28;20194;-75
2023/01/19 01:22:08;;;;;;;14.20;12.53;;;;;;;-0.51;100.00;99341.31;5019794;28;20222;-75
2023/01/19 01:24:34;;;;;;;13.03;11.73;;;;;;;-0.47;100.00;99345.63;5023730;28;20190;-73
2023/01/19 01:26:59;;;;;;;12.70;11.47;;;;;;;-0.47;100.00;99347.28;5025762;28;20193;-73
2023/01/19 01:29:25;;;;;;;12.30;11.03;;;;;;;-0.45;100.00;99355.81;5027843;28;20796;-74
2023/01/19 01:31:50;;;;;;;13.57;11.87;;;;;;;-0.45;100.00;99343.09;5019390;28;20246;-75
2023/01/19 01:34:16;;;;;;;13.07;11.07;;;;;;;-0.48;100.00;99348.13;5021999;28;20203;-73
2023/01/19 01:36:41;;;;;;;11.97;10.77;;;;;;;-0.53;100.00;99354.81;5013848;28;20697;-75
2023/01/19 01:39:07;;;;;;;11.73;10.53;;;;;;;-0.56;100.00;99353.03;5026844;28;20549;-74
2023/01/19 01:41:32;;;;;;;11.20;10.07;;;;;;;-0.56;100.00;99355.59;5032839;28;20277;-72
2023/01/19 01:44:00;;;;;;;11.20;10.10;;;;;;;-0.51;100.00;99353.13;5028604;28;20209;-73
2023/01/19 01:46:28;;;;;;;11.03;9.70;;;;;;;-0.47;100.00;99354.91;5027105;28;20808;-73
2023/01/19 01:49:03;;;;;;;11.63;10.43;;;;;;;-0.42;100.00;99352.47;5028801;28;20199;-74
2023/01/19 01:51:30;;;;;;;12.03;10.83;;;;;;;-0.38;100.00;99360.19;5022961;28;20214;-73
2023/01/19 01:54:15;;;;;;;13.03;11.30;;;;;;;-0.34;100.00;99358.59;5019599;28;20217;-73
2023/01/19 01:56:45;;;;;;;12.63;11.33;;;;;;;-0.33;100.00;99360.31;5025014;28;20205;-75
2023/01/19 01:59:24;;;;;;;11.97;10.77;;;;;;;-0.32;100.00;99354.41;5020649;28;20197;-75
2023/01/19 02:04:45;;;;;;;13.30;11.90;;;;;;;-0.32;100.00;99351.84;5012648;28;20282;-73
2023/01/19 02:15:28;;;;;;;12.83;11.60;;;;;;;-0.26;100.00;99357.03;5024235;28;20573;-73
2023/01/19 02:17:53;;;;;;;12.67;11.47;;;;;;;-0.23;100.00;99356.25;5027625;28;20194;-73
2023/01/19 02:20:23;;;;;;;13.47;11.73;;;;;;;-0.20;100.00;99361.38;5020431;28;20235;-73
2023/01/19 02:22:50;;;;;;;13.63;12.10;;;;;;;-0.18;100.00;99362.28;5016192;28;20604;-73
2023/01/19 02:25:18;;;;;;;13.33;10.90;;;;;;;-0.16;100.00;99364.03;5021503;28;20195;-73
2023/01/19 02:27:44;;;;;;;12.63;11.00;;;;;;;-0.16;100.00;99355.53;5016940;28;20202;-74
2023/01/19 02:30:10;;;;;;;12.73;11.43;;;;;;;-0.16;100.00;99355.53;5016293;28;20651;-78
2023/01/19 02:32:35;;;;;;;13.87;11.60;;;;;;;-0.16;100.00;99358.97;5020253;28;20301;-75
2023/01/19 02:35:01;;;;;;;12.63;11.33;;;;;;;-0.16;100.00;99358.97;5022897;28;20195;-74
2023/01/19 02:37:31;;;;;;;12.70;11.40;;;;;;;-0.15;100.00;99354.72;5016000;28;20227;-77
2023/01/19 02:40:01;;;;;;;13.20;11.83;;;;;;;-0.16;100.00;99353.88;5018316;28;20275;-71
2023/01/19 02:42:31;;;;;;;13.87;11.67;;;;;;;-0.15;100.00;99352.16;5020181;28;20280;-73
2023/01/19 02:44:56;;;;;;;12.33;11.13;;;;;;;-0.16;100.00;99358.09;5018416;28;20203;-75
2023/01/19 02:47:23;;;;;;;12.00;10.77;;;;;;;-0.16;100.00;99356.41;5018264;28;20182;-75
2023/01/19 02:49:56;;;;;;;12.07;10.87;;;;;;;-0.16;100.00;99360.63;5022932;28;20235;-75
2023/01/19 02:52:21;;;;;;;12.67;11.37;;;;;;;-0.16;100.00;99366.59;5021670;28;20668;-75
2023/01/19 02:54:57;;;;;;;12.73;11.43;;;;;;;-0.14;100.00;99363.19;5025720;28;20225;-74
2023/01/19 02:57:47;;;;;;;12.23;10.93;;;;;;;-0.14;100.00;99355.56;5026011;28;20681;-72
2023/01/19 03:00:41;;;;;;;13.00;11.77;;;;;;;-0.10;100.00;99364.97;5029405;28;20210;-71
2023/01/19 03:03:14;;;;;;;14.23;12.83;;;;;;;-0.09;100.00;99351.44;5028964;28;20187;-71
2023/01/19 03:06:09;;;;;;;12.83;11.53;;;;;;;-0.07;100.00;99357.41;5024815;28;20544;-72
2023/01/19 03:08:51;;;;;;;13.63;12.33;;;;;;;-0.08;100.00;99354.03;5022597;28;20322;-72
2023/01/19 03:11:17;;;;;;;13.50;12.17;;;;;;;-0.11;100.00;99348.88;5037001;28;20230;-75
2023/01/19 03:13:53;;;;;;;13.67;12.37;;;;;;;-0.11;100.00;99351.41;5044063;28;20209;-73
2023/01/19 03:16:29;;;;;;;14.60;12.53;;;;;;;-0.11;100.00;99353.94;5021240;28;20219;-71
2023/01/19 03:18:58;;;;;;;13.60;12.17;;;;;;;-0.11;100.00;99353.94;5033655;28;20661;-74
2023/01/19 03:21:26;;;;;;;14.13;12.63;;;;;;;-0.13;100.00;99358.16;5017187;28;20220;-70
2023/01/19 03:23:55;;;;;;;13.53;12.03;;;;;;;-0.14;100.00;99351.34;5016156;28;20212;-71
2023/01/19 03:26:25;;;;;;;13.10;11.80;;;;;;;-0.14;100.00;99358.97;5025303;28;20187;-75
2023/01/19 03:28:51;;;;;;;13.70;12.37;;;;;;;-0.14;100.00;99358.97;5020579;28;20226;-74
2023/01/19 03:31:22;;;;;;;14.13;12.60;;;;;;;-0.12;100.00;99348.81;5019412;28;20831;-76
2023/01/19 03:33:52;;;;;;;13.37;12.07;;;;;;;-0.13;100.00;99362.34;5024347;28;20253;-75
2023/01/19 03:36:28;;;;;;;13.80;12.50;;;;;;;-0.17;100.00;99356.38;5017536;28;20190;-73
2023/01/19 03:38:56;;;;;;;13.10;11.70;;;;;;;-0.24;100.00;99357.09;5024490;28;20188;-75
2023/01/19 03:41:24;;;;;;;13.23;11.80;;;;;;;-0.27;100.00;99357.88;5022438;28;20690;-72
2023/01/19 03:43:52;;;;;;;13.70;12.33;;;;;;;-0.29;100.00;99354.44;5030105;28;20194;-73
2023/01/19 03:46:18;;;;;;;13.17;11.77;;;;;;;-0.30;100.00;99352.72;5018955;28;20278;-71
2023/01/19 03:48:45;;;;;;;13.50;12.17;;;;;;;-0.29;100.00;99362.06;5018585;28;20183;-70
2023/01/19 03:51:12;;;;;;;13.87;12.37;;;;;;;-0.28;100.00;99366.31;5018434;28;20246;-74
2023/01/19 03:53:37;;;;;;;13.43;12.20;;;;;;;-0.27;100.00;99362.94;5025044;28;20202;-73
2023/01/19 03:56:03;;;;;;;12.77;11.57;;;;;;;-0.27;100.00;99370.56;5019539;28;20188;-74
2023/01/19 03:58:28;;;;;;;12.93;11.63;;;;;;;-0.29;100.00;99369.69;5022584;28;20282;-74
2023/01/19 04:00:53;;;;;;;14.33;11.43;;;;;;;-0.32;100.00;99367.09;5011753;28;20219;-72
2023/01/19 04:03:19;;;;;;;13.73;12.33;;;;;;;-0.37;100.00;99368.69;5018339;28;20622;-74
2023/01/19 04:05:44;;;;;;;12.57;11.27;;;;;;;-0.47;100.00;99365.97;5024511;28;20633;-72
2023/01/19 04:08:10;;;;;;;13.20;11.90;;;;;;;-0.57;100.00;99370.81;5020678;28;20565;-73
2023/01/19 04:10:36;;;;;;;15.03;12.50;;;;;;;-0.69;100.00;99369.72;5022187;28;20213;-72
2023/01/19 04:13:02;;;;;;;13.33;11.73;;;;;;;-0.81;100.00;99362.69;5019702;28;20216;-72
2023/01/19 04:15:28;;;;;;;12.43;11.13;;;;;;;-0.92;100.00;99372.59;5016164;28;20663;-72
2023/01/19 04:17:56;;;;;;;12.97;11.67;;;;;;;-1.00;100.00;99369.03;5017248;28;20275;-72
2023/01/19 04:20:21;;;;;;;13.00;11.67;;;;;;;-1.09;100.00;99367.16;5022234;28;20268;-73
2023/01/19 04:22:48;;;;;;;13.47;12.17;;;;;;;-1.16;100.00;99374.59;5021641;28;20194;-71
2023/01/19 04:25:14;;;;;;;12.50;11.20;;;;;;;-1.25;100.00;99375.22;5019073;28;20192;-72
2023/01/19 04:27:39;;;;;;;12.20;11.00;;;;;;;-1.33;100.00;99382.66;5019564;28;20219;-73
2023/01/19 04:30:05;;;;;;;12.83;11.53;;;;;;;-1.40;100.00;99388.38;5018523;28;20248;-76
2023/01/19 04:32:31;;;;;;;12.30;11.07;;;;;;;-1.44;100.00;99384.91;5013770;28;20278;-73
2023/01/19 04:34:57;;;;;;;13.17;11.77;;;;;;;-1.47;100.00;99392.44;5017734;28;20302;-73
2023/01/19 04:37:22;;;;;;;12.47;11.23;;;;;;;-1.52;100.00;99388.97;5015633;28;20647;-74
2023/01/19 04:39:48;;;;;;;12.40;11.20;;;;;;;-1.56;100.00;99390.53;5013892;28;20188;-73
2023/01/19 04:42:14;;;;;;;12.63;10.50;;;;;;;-1.61;100.00;99384.50;5016734;28;20221;-72
2023/01/19 04:44:39;;;;;;;11.87;10.47;;;;;;;-1.66;100.00;99387.75;5016654;28;20196;-72
2023/01/19 04:47:04;;;;;;;12.43;11.07;;;;;;;-1.72;100.00;99396.03;5016143;28;20567;-74
2023/01/19 04:49:30;;;;;;;12.10;10.60;;;;;;;-1.78;100.00;99400.97;5029703;28;20824;-73
2023/01/19 04:51:55;;;;;;;11.23;10.00;;;;;;;-1.82;100.00;99396.63;5016869;28;20213;-72
2023/01/19 04:54:21;;;;;;;11.57;10.23;;;;;;;-1.88;100.00;99405.75;5025396;28;20235;-73
2023/01/19 04:56:46;;;;;;;12.47;10.17;;;;;;;-1.91;100.00;99405.72;5024299;28;20196;-71
2023/01/19 04:59:12;;;;;;;11.70;10.47;;;;;;;-1.94;100.00;99408.16;5013699;28;20190;-73
2023/01/19 05:01:37;;;;;;;11.47;10.13;;;;;;;-1.97;100.00;99405.53;5018376;28;20196;-72
2023/01/19 05:04:05;;;;;;;12.07;10.33;;;;;;;-1.95;100.00;99406.44;5019766;28;20181;-72
2023/01/19 05:06:31;;;;;;;11.30;10.03;;;;;;;-1.86;100.00;99414.28;5014552;28;20268;-72
2023/01/19 05:08:56;;;;;;;11.97;10.77;;;;;;;-1.73;100.00;99418.03;5021984;28;20609;-71
2023/01/19 05:11:21;;;;;;;11.70;10.50;;;;;;;-1.61;100.00;99411.53;5015124;28;20576;-72
2023/01/19 05:13:46;;;;;;;11.43;10.33;;;;;;;-1.46;100.00;99416.16;5019213;28;20255;-71
2023/01/19 05:16:12;;;;;;;12.63;11.33;;;;;;;-1.31;100.00;99419.09;5015372;28;20197;-72
2023/01/19 05:18:38;;;;;;;11.83;10.53;;;;;;;-1.18;100.00;99419.41;5023223;28;20177;-74
2023/01/19 05:21:04;;;;;;;12.07;10.47;;;;;;;-1.08;100.00;99418.78;5057203;28;20189;-74
2023/01/19 05:23:31;;;;;;;12.10;10.73;;;;;;;-0.99;100.00;99418.16;5029233;28;20312;-72
2023/01/19 05:25:59;;;;;;;11.40;10.27;;;;;;;-0.90;100.00;99417.50;5019772;28;20251;-71
2023/01/19 05:28:25;;;;;;;11.33;10.13;;;;;;;-0.86;100.00;99414.22;5021882;28;20194;-72
2023/01/19 05:30:50;;;;;;;11.77;10.60;;;;;;;-0.80;100.00;99419.44;5032102;28;20764;-74
2023/01/19 05:33:16;;;;;;;12.40;10.87;;;;;;;-0.77;100.00;99412.75;5034182;28;20293;-75
2023/01/19 05:35:41;;;;;;;11.93;9.90;;;;;;;-0.67;100.00;99421.41;5034054;28;20588;-75
2023/01/19 05:38:06;;;;;;;11.83;10.50;;;;;;;-0.62;100.00;99421.56;5027568;28;20247;-75
2023/01/19 05:40:32;;;;;;;11.43;10.33;;;;;;;-0.56;100.00;99415.75;5025784;28;20594;-71
2023/01/19 05:43:00;;;;;;;11.27;10.17;;;;;;;-0.53;100.00;99420.91;5029424;28;20244;-71
2023/01/19 05:45:27;;;;;;;11.40;10.30;;;;;;;-0.49;100.00;99425.19;5030229;28;20183;-71
2023/01/19 05:47:55;;;;;;;10.93;9.83;;;;;;;-0.44;100.00;99422.75;5028830;28;20190;-71
2023/01/19 05:50:20;;;;;;;11.10;10.03;;;;;;;-0.41;100.00;99423.69;5026294;28;20207;-70
2023/01/19 05:52:46;;;;;;;11.40;10.20;;;;;;;-0.37;100.00;99424.63;5022206;28;20249;-73
2023/01/19 05:55:11;;;;;;;11.67;10.13;;;;;;;-0.34;100.00;99428.06;5024677;28;20198;-72
2023/01/19 05:57:36;;;;;;;10.47;9.40;;;;;;;-0.33;100.00;99426.41;5026075;28;20883;-72
2023/01/19 06:00:05;;;;;;;12.40;11.20;;;;;;;-0.33;100.00;99418.78;5015682;28;20203;-71
2023/01/19 06:02:30;;;;;;;12.67;11.47;;;;;;;-0.33;100.00;99417.06;5028440;28;20185;-71
2023/01/19 06:04:56;;;;;;;13.23;11.83;;;;;;;-0.31;100.00;99424.75;5047546;28;20177;-72
2023/01/19 06:07:21;;;;;;;16.47;13.90;;;;;;;-0.31;100.00;99425.59;5038586;28;20185;-72
2023/01/19 06:09:47;;;;;;;14.17;12.40;;;;;;;-0.33;100.00;99434.88;5016183;28;20182;-71
2023/01/19 06:12:12;;;;;;;14.13;12.63;;;;;;;-0.35;100.00;99435.69;5024799;28;20305;-70
2023/01/19 06:14:39;;;;;;;12.90;11.33;;;;;;;-0.35;100.00;99436.53;5014469;28;20188;-76
2023/01/19 06:17:05;;;;;;;12.57;11.27;;;;;;;-0.34;100.00;99434.84;5018041;28;20197;-75
2023/01/19 06:19:31;;;;;;;11.90;10.70;;;;;;;-0.32;100.00;99439.13;5018721;28;20659;-75
2023/01/19 06:21:56;;;;;;;11.60;10.50;;;;;;;-0.28;100.00;99447.69;5016195;28;20225;-75
2023/01/19 06:24:22;;;;;;;11.07;9.90;;;;;;;-0.24;100.00;99444.38;5015742;28;20600;-71
2023/01/19 06:26:48;;;;;;;10.70;9.60;;;;;;;-0.18;100.00;99449.63;5023407;28;20186;-71
2023/01/19 06:29:13;;;;;;;11.00;9.90;;;;;;;-0.12;100.00;99448.00;5014143;28;20573;-74
2023/01/19 06:31:39;;;;;;;10.27;9.27;;;;;;;-0.07;100.00;99448.97;5009561;28;20210;-75
2023/01/19 06:34:05;;;;;;;10.97;9.83;;;;;;;-0.03;100.00;99449.06;5014459;28;20638;-75
2023/01/19 06:36:30;;;;;;;10.10;9.10;;;;;;;0.01;100.00;99457.59;5011149;28;20189;-74
2023/01/19 06:38:55;;;;;;;11.40;9.93;;;;;;;0.05;100.00;99451.75;5032052;28;20198;-74
2023/01/19 06:41:21;;;;;;;10.50;8.87;;;;;;;0.07;100.00;99460.28;5026365;28;20260;-74
2023/01/19 06:43:46;;;;;;;11.07;9.97;;;;;;;0.12;100.00;99457.81;5017479;28;20662;-72
2023/01/19 06:46:12;;;;;;;10.70;9.57;;;;;;;0.14;100.00;99456.19;5012696;28;20237;-74
2023/01/19 06:48:38;;;;;;;10.87;9.77;;;;;;;0.18;100.00;99463.03;5018118;28;20191;-72
2023/01/19 06:51:05;;;;;;;11.97;9.50;;;;;;;0.22;100.00;99448.69;5015311;28;20594;-74
2023/01/19 06:53:30;;;;;;;11.17;10.07;;;;;;;0.23;100.00;99451.25;5017731;28;20210;-71
2023/01/19 06:56:02;;;;;;;10.83;9.80;;;;;;;0.26;100.00;99453.03;5020864;28;20222;-74
2023/01/19 06:58:28;;;;;;;11.40;10.10;;;;;;;0.28;100.00;99452.22;5017969;28;20191;-75
2023/01/19 07:00:53;;;;;;;11.40;9.20;;;;;;;0.29;100.00;99459.03;5025375;28;20212;-74
2023/01/19 07:03:21;;;;;;;10.23;9.23;;;;;;;0.29;100.00;99466.66;5029064;28;20227;-76
2023/01/19 07:05:49;;;;;;;41.40;28.70;;;;;;;0.31;100.00;99456.50;5019044;28;20198;-74
2023/01/19 07:08:14;;;;;;;24.27;18.70;;;;;;;0.34;100.00;99465.91;5017021;28;20671;-72
2023/01/19 07:10:40;;;;;;;24.40;18.07;;;;;;;0.34;100.00;99468.44;5030129;28;20204;-73
2023/01/19 07:13:05;;;;;;;19.80;17.10;;;;;;;0.36;100.00;99469.31;5039410;28;20214;-71
2023/01/19 07:15:30;;;;;;;16.27;14.53;;;;;;;0.37;100.00;99468.50;5046727;28;20190;-74
2023/01/19 07:17:59;;;;;;;22.30;18.13;;;;;;;0.38;100.00;99472.78;5033919;28;20198;-75
2023/01/19 07:20:24;;;;;;;18.33;16.40;;;;;;;0.38;100.00;99471.06;5041113;28;20285;-75
2023/01/19 07:22:55;;;;;;;15.97;13.13;;;;;;;0.41;100.00;99477.88;5032724;28;20822;-74
2023/01/19 07:25:21;;;;;;;16.10;14.40;;;;;;;0.42;100.00;99483.03;5028699;28;20195;-77
2023/01/19 07:27:46;;;;;;;13.20;11.77;;;;;;;0.45;100.00;99484.75;5027091;28;20190;-74
2023/01/19 07:30:14;;;;;;;11.90;10.70;;;;;;;0.47;100.00;99487.31;5049766;28;20195;-77
2023/01/19 07:32:41;;;;;;;10.00;9.00;;;;;;;0.51;100.00;99484.03;5045914;28;20763;-75
2023/01/19 07:35:09;;;;;;;7.93;7.23;;;;;;;0.53;100.00;99480.66;5028890;28;20186;-75
2023/01/19 07:37:36;;;;;;;8.67;7.77;;;;;;;0.53;100.00;99475.56;5020470;28;20788;-75
2023/01/19 07:40:02;;;;;;;8.57;7.77;;;;;;;0.54;100.00;99479.84;5022007;28;20214;-75
2023/01/19 07:42:27;;;;;;;9.90;8.90;;;;;;;0.57;100.00;99485.00;5025113;28;20223;-74
2023/01/19 07:44:52;;;;;;;8.63;7.73;;;;;;;0.64;100.00;99491.06;5031891;28;20923;-72
2023/01/19 07:47:17;;;;;;;8.80;7.83;;;;;;;0.69;100.00;99483.50;5026519;28;20238;-73
2023/01/19 07:49:43;;;;;;;8.30;7.50;;;;;;;0.75;100.00;99488.72;5027179;28;20187;-73
2023/01/19 07:52:08;;;;;;;9.67;8.20;;;;;;;0.80;100.00;99483.69;5018914;28;20239;-76
2023/01/19 07:54:34;;;;;;;9.63;8.63;;;;;;;0.90;100.00;99498.31;5025716;28;20615;-77
2023/01/19 07:56:59;;;;;;;11.90;10.67;;;;;;;0.97;100.00;99499.28;5019437;28;20195;-75
2023/01/19 07:59:26;;;;;;;19.50;17.50;;;;;;;0.99;100.00;99498.47;5022440;28;20187;-76
2023/01/19 08:01:52;;;;;;;14.37;12.97;;;;;;;1.03;100.00;99497.69;5016748;28;20269;-76
2023/01/19 08:04:18;;;;;;;16.93;15.17;;;;;;;1.06;100.00;99501.97;5020695;28;20214;-73
2023/01/19 08:06:45;;;;;;;16.07;14.57;;;;;;;1.09;100.00;99501.16;5014373;28;20235;-74
2023/01/19 08:09:10;;;;;;;16.67;14.97;;;;;;;1.13;100.00;99501.28;5017555;28;20245;-74
2023/01/19 08:11:36;;;;;;;16.20;14.50;;;;;;;1.17;100.00;99505.56;5016349;28;20207;-76
2023/01/19 08:14:02;;;;;;;16.40;14.40;;;;;;;1.21;100.00;99511.59;5018562;28;20203;-77
2023/01/19 08:16:27;;;;;;;14.47;12.97;;;;;;;1.25;100.00;99515.03;5019177;28;20218;-75
2023/01/19 08:18:53;;;;;;;11.57;10.37;;;;;;;1.27;100.00;99509.13;5016615;28;20180;-76
2023/01/19 08:21:18;;;;;;;10.77;9.67;;;;;;;1.31;100.00;99516.00;5016617;28;20286;-72
2023/01/19 08:23:50;;;;;;;10.40;9.30;;;;;;;1.34;100.00;99510.94;5017892;28;20185;-75
2023/01/19 08:26:26;;;;;;;8.80;7.90;;;;;;;1.37;100.00;99517.78;5016519;28;20505;-75
2023/01/19 08:28:52;;;;;;;11.10;9.93;;;;;;;1.38;100.00;99522.06;5015614;28;20800;-75
2023/01/19 08:31:17;;;;;;;9.33;8.30;;;;;;;1.42;100.00;99523.81;5013147;28;20211;-76
2023/01/19 08:33:43;;;;;;;8.40;7.67;;;;;;;1.46;100.00;99522.16;5026256;28;20222;-75
2023/01/19 08:36:08;;;;;;;9.53;7.27;;;;;;;1.51;100.00;99525.66;5026019;28;20186;-76
2023/01/19 08:38:33;;;;;;;8.27;7.47;;;;;;;1.57;100.00;99524.91;5018803;28;20191;-78
2023/01/19 08:40:58;;;;;;;8.03;7.33;;;;;;;1.61;100.00;99526.63;5018812;28;20218;-76
2023/01/19 08:43:24;;;;;;;8.73;7.47;;;;;;;1.66;100.00;99530.97;5027523;28;20626;-76
2023/01/19 08:45:51;;;;;;;8.50;7.70;;;;;;;1.69;100.00;99530.16;5027825;28;20183;-75
2023/01/19 08:48:20;;;;;;;7.67;6.87;;;;;;;1.71;100.00;99531.06;5023253;28;20211;-75
2023/01/19 08:50:46;;;;;;;7.97;7.23;;;;;;;1.77;100.00;99540.50;5024490;28;20279;-76
2023/01/19 08:53:12;;;;;;;8.33;7.60;;;;;;;1.79;100.00;99532.00;5027310;28;20199;-77
2023/01/19 08:55:38;;;;;;;8.73;7.87;;;;;;;1.81;100.00;99537.16;5025172;28;20182;-75
2023/01/19 08:58:05;;;;;;;8.40;7.43;;;;;;;1.80;100.00;99538.00;5034193;28;20210;-74
2023/01/19 09:00:32;;;;;;;8.07;7.30;;;;;;;1.83;100.00;99532.91;5024267;28;20195;-74
2023/01/19 09:02:58;;;;;;;8.77;7.20;;;;;;;1.90;100.00;99538.94;5032045;28;20240;-75
2023/01/19 09:05:23;;;;;;;8.13;7.33;;;;;;;1.88;100.00;99533.84;5024042;28;20259;-75
2023/01/19 09:07:50;;;;;;;8.13;7.07;;;;;;;1.86;100.00;99538.06;5027007;28;20317;-74
2023/01/19 09:10:17;;;;;;;8.27;7.50;;;;;;;1.83;100.00;99538.00;5025183;28;20208;-72
2023/01/19 09:12:43;;;;;;;7.37;6.60;;;;;;;1.86;100.00;99542.31;5017606;28;20211;-73
2023/01/19 09:15:12;;;;;;;8.57;7.77;;;;;;;1.88;100.00;99543.22;5026206;28;20188;-75
2023/01/19 09:17:38;;;;;;;7.83;6.70;;;;;;;1.91;100.00;99540.66;5035439;28;20275;-72
2023/01/19 09:20:04;;;;;;;7.70;7.10;;;;;;;1.94;100.00;99540.72;5017800;28;20259;-72
2023/01/19 09:22:30;;;;;;;8.03;7.33;;;;;;;2.02;100.00;99541.69;5020684;28;20197;-73
2023/01/19 09:24:55;;;;;;;8.63;7.33;;;;;;;2.08;100.00;99541.78;5021006;28;22187;-74
2023/01/19 09:27:20;;;;;;;7.67;6.90;;;;;;;2.13;100.00;99544.38;5023299;28;20271;-73
2023/01/19 09:29:51;;;;;;;8.13;7.37;;;;;;;2.11;100.00;99538.41;5019834;28;20191;-74
2023/01/19 09:32:18;;;;;;;7.10;6.50;;;;;;;2.04;100.00;99534.91;5015291;28;20219;-73
2023/01/19 09:34:43;;;;;;;7.90;7.13;;;;;;;2.00;100.00;99539.94;5020854;28;20201;-73
2023/01/19 09:37:08;;;;;;;7.87;7.07;;;;;;;2.05;100.00;99539.16;5024370;28;20180;-73
2023/01/19 09:39:34;;;;;;;7.60;7.00;;;;;;;2.22;100.00;99543.66;5026678;28;20196;-76
2023/01/19 09:42:17;;;;;;;7.60;6.90;;;;;;;2.48;100.00;99538.88;5049747;28;20199;-76
2023/01/19 09:44:46;;;;;;;7.43;6.73;;;;;;;2.68;100.00;99541.66;5044471;28;20179;-73
2023/01/19 09:47:16;;;;;;;7.50;6.80;;;;;;;2.92;99.36;99537.66;5018759;28;20197;-76
2023/01/19 09:49:49;;;;;;;7.23;6.53;;;;;;;3.11;99.02;99530.13;5014068;28;20179;-77
2023/01/19 09:52:15;;;;;;;7.43;6.80;;;;;;;3.22;97.90;99536.22;5024644;28;20286;-75
2023/01/19 09:54:46;;;;;;;7.30;6.23;;;;;;;3.23;97.94;99537.94;5016472;28;20291;-78
2023/01/19 09:57:13;;;;;;;6.57;5.97;;;;;;;3.27;98.14;99543.94;5028644;28;20211;-75
2023/01/19 09:59:40;;;;;;;6.50;5.90;;;;;;;3.27;98.07;99533.69;5015978;28;20183;-74
2023/01/19 10:02:27;;;;;;;6.93;6.27;;;;;;;3.20;97.64;99533.63;5015950;28;20337;-74
2023/01/19 10:05:01;;;;;;;7.10;6.40;;;;;;;3.11;97.53;99538.69;5016598;28;20180;-74
2023/01/19 10:07:57;;;;;;;6.97;6.27;;;;;;;3.03;97.82;99533.50;5017454;28;20281;-74
2023/01/19 10:10:27;;;;;;;6.43;5.83;;;;;;;2.94;98.38;99535.97;5019519;28;20696;-73
2023/01/19 10:13:23;;;;;;;7.17;5.97;;;;;;;2.85;98.80;99543.53;5020901;28;20211;-74
2023/01/19 10:15:54;;;;;;;5.73;5.27;;;;;;;2.78;99.08;99544.31;5022135;28;20283;-75
2023/01/19 10:18:44;;;;;;;6.17;5.57;;;;;;;2.72;99.24;99550.22;5021155;28;20189;-76
2023/01/19 10:21:15;;;;;;;5.73;5.23;;;;;;;2.63;99.27;99553.53;5021266;28;20589;-75
2023/01/19 10:23:46;;;;;;;5.90;5.40;;;;;;;2.54;99.38;99545.75;5021162;28;20211;-73
2023/01/19 10:26:32;;;;;;;6.60;6.00;;;;;;;2.46;100.00;99557.56;5018470;28;20693;-73
2023/01/19 10:29:14;;;;;;;6.07;5.47;;;;;;;2.36;100.00;99560.00;5026450;28;20258;-73
2023/01/19 10:31:42;;;;;;;6.20;5.70;;;;;;;2.30;100.00;99559.94;5021183;28;20218;-75
2023/01/19 10:34:16;;;;;;;6.90;6.30;;;;;;;2.26;100.00;99558.16;5019717;28;20203;-75
2023/01/19 10:36:42;;;;;;;6.27;5.50;;;;;;;2.26;100.00;99558.16;5013392;28;20213;-73
2023/01/19 10:39:13;;;;;;;6.70;6.10;;;;;;;2.31;100.00;99564.22;5018524;28;20696;-74
2023/01/19 10:41:43;;;;;;;6.40;5.80;;;;;;;2.37;100.00;99560.88;5022477;28;20200;-73
2023/01/19 10:44:09;;;;;;;6.47;5.87;;;;;;;2.40;100.00;99564.31;5021908;28;20290;-74
2023/01/19 10:46:49;;;;;;;6.60;6.00;;;;;;;2.43;100.00;99566.03;5027738;28;20261;-74
2023/01/19 10:49:36;;;;;;;6.47;5.93;;;;;;;2.43;100.00;99556.69;5015211;28;20187;-75
2023/01/19 10:52:02;;;;;;;7.00;6.30;;;;;;;2.42;100.00;99565.19;5020920;28;20227;-73
2023/01/19 10:54:30;;;;;;;6.07;5.57;;;;;;;2.44;100.00;99573.72;5024818;28;20206;-72
2023/01/19 10:57:02;;;;;;;6.30;5.67;;;;;;;2.50;100.00;99569.53;5021120;28;20191;-73
2023/01/19 10:59:34;;;;;;;6.30;5.80;;;;;;;2.56;100.00;99572.16;5022632;28;20179;-73
2023/01/19 11:02:18;;;;;;;6.83;6.13;;;;;;;2.65;100.00;99577.38;5020324;28;20211;-74
2023/01/19 11:04:47;;;;;;;6.90;6.20;;;;;;;2.70;100.00;99573.19;5019591;28;20189;-72
2023/01/19 11:07:19;;;;;;;6.57;5.97;;;;;;;2.78;99.71;99567.31;5019429;28;20399;-74
2023/01/19 11:09:48;;;;;;;6.30;5.70;;;;;;;2.84;99.58;99577.59;5027221;28;20183;-73
2023/01/19 11:12:20;;;;;;;6.67;5.90;;;;;;;2.85;99.14;99574.19;5027024;28;20245;-75
2023/01/19 11:14:47;;;;;;;7.27;6.57;;;;;;;2.82;99.21;99582.69;5020851;28;20186;-74
2023/01/19 11:17:24;;;;;;;7.27;6.57;;;;;;;2.80;99.28;99580.97;5029791;28;20185;-73
2023/01/19 11:19:59;;;;;;;7.57;6.63;;;;;;;2.74;98.81;99582.59;5022712;28;20236;-73
2023/01/19 11:22:29;;;;;;;8.83;7.47;;;;;;;2.71;99.11;99581.72;5025255;28;20262;-73
2023/01/19 11:24:59;;;;;;;8.20;7.40;;;;;;;2.69;99.11;99585.94;5021444;28;22091;-75
2023/01/19 11:27:25;;;;;;;8.00;7.20;;;;;;;2.69;99.20;99578.28;5030307;28;20815;-74
2023/01/19 11:30:16;;;;;;;7.27;6.43;;;;;;;2.73;99.29;99578.34;5025855;28;20191;-73
2023/01/19 11:32:41;;;;;;;7.50;6.77;;;;;;;2.78;99.04;99574.97;5019370;28;20246;-73
2023/01/19 11:35:35;;;;;;;8.50;7.60;;;;;;;2.85;98.88;99574.19;5018965;28;20215;-73